Monte Argentario, Italy

11:31 AM CET on January 26, 2015 (GMT +0100)
Monte Argentario | Change Station
CLOSE
Current Station
Airport
Location: Monte Argentario,
Elevation: 2070 ft
Nearby Weather Stations

Elev 2070 ft 42.39 °N, 11.17 °E | Updated 36 minutes ago

Clear
Clear
39 °F
Feels Like 28 °F
N
29
Wind Variable Wind from ENE

Today
High -- | Low -- °F
--% Chance of Precip.
Yesterday
High -- | Low -- °F
Precip. -- in
7:35 AM 5:20 PM
Waxing Crescent, 42% visible
Pressure 30.01 in
Visibility -9999.0 miles
Clouds
Windchill 28 °F
Dew Point 28 °F
Humidity 65%
Rainfall 0.00 in
Snow Depth Not available.
UV Not available.
Pollen Not available.
Air Quality Not available.
Flu Activity Not available.
METAR LIQO 260955Z 07025KT CAVOK 04/M02 Q1016 RMK FEW FEW090 VAL NIL NC VIS MIN 9999

More Conditions Fewer Conditions

Pressure 30.01 in
Visibility -9999.0 miles
Clouds
Windchill 28 °F
Dew Point 28 °F
Humidity 65%
Rainfall 0.00 in
Snow Depth Not available.
UV Not available.
Pollen Not available.
Air Quality Not available.
Flu Activity Not available.
METAR LIQO 260955Z 07025KT CAVOK 04/M02 Q1016 RMK FEW FEW090 VAL NIL NC VIS MIN 9999

More Conditions Fewer Conditions

10-Day Weather Forecast

Almanac

Astronomy

Jan. 26, 2015 Rise Set
Actual Time
Civil Twilight
Nautical Twilight
Astronomical Twilight
Moon
Length of Visible Light
Length of Day
Tomorrow will be .
, % of the Moon is Illuminated

Today's Extremes

Country Highs Country Lows

Community

WunderPhotos

Upload Photos

1,790,171 photos uploaded!

WunderBlogs® & News

Nearby

Air Quality

  Air Quality AQ Index Pollutant
Not available.

Snow Depth

Station Depth Elevation

Earthquake Activity

City Distance Mag. Time & Date
Minimum magnitude displayed is 2.5.

Coastal Water Temperatures

Place Temperature

Nearby Weather Stations